createdAt,value
2023-03-22T00:00:37.556Z,0.00
2023-03-22T00:01:37.308Z,0.00
2023-03-22T00:02:37.361Z,0.00
2023-03-22T00:03:37.278Z,0.00
2023-03-22T00:04:37.274Z,0.00
2023-03-22T00:05:37.241Z,0.00
2023-03-22T00:06:37.254Z,0.00
2023-03-22T00:07:37.271Z,0.00
2023-03-22T00:08:37.362Z,0.00
2023-03-22T00:09:37.174Z,0.00
2023-03-22T00:10:37.472Z,0.00
2023-03-22T00:11:37.178Z,0.00
2023-03-22T00:12:37.182Z,0.00
2023-03-22T00:13:37.133Z,0.00
2023-03-22T00:14:37.217Z,0.00
2023-03-22T00:15:37.119Z,0.00
2023-03-22T00:16:37.131Z,0.00
2023-03-22T00:17:37.120Z,0.00
2023-03-22T00:18:37.120Z,0.00
2023-03-22T00:19:37.062Z,0.00
2023-03-22T00:20:37.619Z,0.00
2023-03-22T00:21:37.174Z,0.00
2023-03-22T00:22:37.055Z,0.00
2023-03-22T00:23:37.184Z,0.00
2023-03-22T00:24:37.066Z,0.00
2023-03-22T00:25:36.994Z,0.00
2023-03-22T00:26:37.044Z,0.00
2023-03-22T00:27:37.690Z,0.00
2023-03-22T00:28:36.989Z,0.00
2023-03-22T00:29:36.988Z,0.00
2023-03-22T00:30:37.317Z,0.00
2023-03-22T00:31:37.137Z,0.00
2023-03-22T00:32:46.234Z,0.00
2023-03-22T00:33:36.932Z,0.00
2023-03-22T00:34:37.031Z,0.00
2023-03-22T00:35:36.924Z,0.00
2023-03-22T00:36:36.884Z,0.00
2023-03-22T00:37:36.948Z,0.00
2023-03-22T00:38:42.478Z,0.00
2023-03-22T00:39:37.897Z,0.00
2023-03-22T00:40:37.176Z,0.00
2023-03-22T00:41:36.889Z,0.00
2023-03-22T00:42:36.890Z,0.00
2023-03-22T00:43:36.802Z,0.00
2023-03-22T00:44:36.837Z,0.00
2023-03-22T00:45:36.801Z,0.00
2023-03-22T00:46:36.845Z,0.00
2023-03-22T00:47:36.816Z,0.00
2023-03-22T00:48:36.754Z,0.00
2023-03-22T00:49:36.766Z,0.00
2023-03-22T00:50:38.126Z,0.00
2023-03-22T00:51:36.746Z,0.00
2023-03-22T00:52:36.740Z,0.00
2023-03-22T00:53:36.728Z,0.00
2023-03-22T00:54:36.700Z,0.00
2023-03-22T00:55:36.676Z,0.00
2023-03-22T00:56:36.776Z,0.00
2023-03-22T00:57:36.683Z,0.00
2023-03-22T00:58:36.693Z,0.00
2023-03-22T00:59:36.625Z,0.00
2023-03-22T01:00:36.866Z,0.00
2023-03-22T01:01:36.805Z,0.00
2023-03-22T01:02:36.615Z,0.00
2023-03-22T01:03:36.661Z,0.00
2023-03-22T01:04:36.632Z,0.00
2023-03-22T01:05:36.556Z,0.00
2023-03-22T01:06:36.744Z,0.00
2023-03-22T01:07:36.581Z,0.00
2023-03-22T01:08:36.545Z,0.00
2023-03-22T01:09:36.571Z,0.00
2023-03-22T01:10:36.721Z,0.00
2023-03-22T01:11:36.505Z,0.00
2023-03-22T01:12:36.564Z,0.00
2023-03-22T01:13:36.517Z,0.00
2023-03-22T01:14:36.506Z,0.00
2023-03-22T01:15:36.488Z,0.00
2023-03-22T01:16:36.522Z,0.00
2023-03-22T01:17:36.425Z,0.00
2023-03-22T01:18:36.710Z,0.00
2023-03-22T01:19:36.453Z,0.00
2023-03-22T01:20:36.455Z,0.00
2023-03-22T01:21:36.432Z,0.00
2023-03-22T01:22:36.436Z,0.00
2023-03-22T01:23:36.463Z,0.00
2023-03-22T01:24:36.379Z,0.00
2023-03-22T01:25:36.350Z,0.00
2023-03-22T01:26:36.364Z,0.00
2023-03-22T01:27:36.314Z,0.00
2023-03-22T01:28:36.387Z,0.00
2023-03-22T01:29:36.303Z,0.00
2023-03-22T01:30:36.394Z,0.00
2023-03-22T01:31:36.295Z,0.00
2023-03-22T01:32:36.317Z,0.00
2023-03-22T01:33:36.445Z,0.00
2023-03-22T01:34:36.250Z,0.00
2023-03-22T01:35:36.407Z,0.00
2023-03-22T01:36:36.238Z,0.00
2023-03-22T01:37:36.241Z,0.00
2023-03-22T01:38:36.237Z,0.00
2023-03-22T01:39:36.169Z,0.00
2023-03-22T01:40:36.184Z,0.00
2023-03-22T01:41:36.189Z,0.00
2023-03-22T01:42:36.176Z,0.00
2023-03-22T01:43:36.164Z,0.00
2023-03-22T01:44:36.181Z,0.00
2023-03-22T01:45:36.119Z,0.00
2023-03-22T01:46:36.163Z,0.00
2023-03-22T01:47:36.116Z,0.00
2023-03-22T01:48:36.119Z,0.00
2023-03-22T01:49:36.107Z,0.00
2023-03-22T01:50:36.064Z,0.00
2023-03-22T01:51:36.053Z,0.00
2023-03-22T01:52:36.041Z,0.00
2023-03-22T01:53:36.041Z,0.00
2023-03-22T01:54:36.049Z,0.00
2023-03-22T01:55:35.993Z,0.00
2023-03-22T01:56:35.995Z,0.00
2023-03-22T01:57:35.971Z,0.00
2023-03-22T01:58:35.988Z,0.00
2023-03-22T01:59:35.991Z,0.00
2023-03-22T02:00:36.040Z,0.00
2023-03-22T02:01:36.083Z,0.00
2023-03-22T02:02:36.000Z,0.00
2023-03-22T02:03:35.924Z,0.00
2023-03-22T02:04:35.924Z,0.00
2023-03-22T02:05:35.933Z,0.00
2023-03-22T02:06:35.931Z,0.00
2023-03-22T02:07:35.863Z,0.00
2023-03-22T02:08:35.864Z,0.00
2023-03-22T02:09:35.888Z,0.00
2023-03-22T02:10:35.856Z,0.00
2023-03-22T02:11:35.881Z,0.00
2023-03-22T02:12:35.856Z,0.00
2023-03-22T02:13:35.791Z,0.00
2023-03-22T02:14:35.814Z,0.00
2023-03-22T02:15:35.809Z,0.00
2023-03-22T02:16:35.795Z,0.00
2023-03-22T02:17:35.800Z,0.00
2023-03-22T02:18:35.762Z,0.00
2023-03-22T02:19:35.744Z,0.00
2023-03-22T02:20:36.306Z,0.00
2023-03-22T02:21:35.721Z,0.00
2023-03-22T02:22:35.730Z,0.00
2023-03-22T02:23:35.748Z,0.00
2023-03-22T02:24:35.672Z,0.00
2023-03-22T02:25:35.686Z,0.00
2023-03-22T02:26:35.659Z,0.00
2023-03-22T02:27:35.661Z,0.00
2023-03-22T02:28:35.659Z,0.00
2023-03-22T02:29:35.672Z,0.00
2023-03-22T02:30:35.602Z,0.00
2023-03-22T02:31:35.652Z,0.00
2023-03-22T02:32:35.631Z,0.00
2023-03-22T02:33:35.622Z,0.00
2023-03-22T02:34:35.613Z,0.00
2023-03-22T02:35:35.628Z,0.00
2023-03-22T02:36:35.540Z,0.00
2023-03-22T02:37:35.528Z,0.00
2023-03-22T02:38:35.552Z,0.00
2023-03-22T02:39:35.540Z,0.00
2023-03-22T02:40:35.560Z,0.00
2023-03-22T02:41:35.494Z,0.00
2023-03-22T02:42:35.762Z,0.00
2023-03-22T02:43:35.495Z,0.00
2023-03-22T02:44:35.489Z,0.00
2023-03-22T02:45:35.490Z,0.00
2023-03-22T02:46:35.458Z,0.00
2023-03-22T02:47:35.424Z,0.00
2023-03-22T02:48:35.442Z,0.00
2023-03-22T02:49:35.412Z,0.00
2023-03-22T02:50:35.526Z,0.00
2023-03-22T02:51:35.411Z,0.00
2023-03-22T02:52:35.355Z,0.00
2023-03-22T02:53:35.525Z,0.00
2023-03-22T02:54:35.741Z,0.00
2023-03-22T02:55:35.339Z,0.00
2023-03-22T02:56:35.437Z,0.00
2023-03-22T02:57:35.351Z,0.00
2023-03-22T02:58:35.291Z,0.00
2023-03-22T02:59:35.303Z,0.00
2023-03-22T03:00:35.328Z,0.00
2023-03-22T03:01:35.303Z,0.00
2023-03-22T03:02:35.285Z,0.00
2023-03-22T03:03:35.299Z,0.00
2023-03-22T03:04:35.221Z,0.00
2023-03-22T03:05:36.231Z,0.00
2023-03-22T03:06:35.340Z,0.00
2023-03-22T03:07:35.221Z,0.00
2023-03-22T03:08:35.201Z,0.00
2023-03-22T03:09:35.163Z,0.00
2023-03-22T03:10:35.227Z,0.00
2023-03-22T03:11:35.152Z,0.00
2023-03-22T03:12:35.157Z,0.00
2023-03-22T03:13:35.155Z,0.00
2023-03-22T03:14:35.107Z,0.00
2023-03-22T03:15:35.098Z,0.00
2023-03-22T03:16:35.346Z,0.00
2023-03-22T03:17:35.117Z,0.00
2023-03-22T03:18:35.144Z,0.00
2023-03-22T03:19:35.099Z,0.00
2023-03-22T03:20:35.037Z,0.00
2023-03-22T03:21:35.108Z,0.00
2023-03-22T03:22:35.197Z,0.00
2023-03-22T03:23:35.063Z,0.00
2023-03-22T03:24:35.030Z,0.00
2023-03-22T03:25:35.135Z,0.00
2023-03-22T03:26:35.034Z,0.00
2023-03-22T03:27:34.990Z,0.00
2023-03-22T03:28:34.969Z,0.00
2023-03-22T03:29:34.974Z,0.00
2023-03-22T03:30:34.968Z,0.00
2023-03-22T03:31:35.103Z,0.00
2023-03-22T03:32:34.905Z,0.00
2023-03-22T03:33:34.927Z,0.00
2023-03-22T03:34:34.924Z,0.00
2023-03-22T03:35:35.045Z,0.00
2023-03-22T03:36:34.917Z,0.00
2023-03-22T03:37:34.852Z,0.00
2023-03-22T03:38:34.922Z,0.00
2023-03-22T03:39:34.845Z,0.00
2023-03-22T03:40:35.773Z,0.00
2023-03-22T03:41:34.838Z,0.00
2023-03-22T03:42:34.883Z,0.00
2023-03-22T03:43:34.847Z,0.00
2023-03-22T03:44:34.798Z,0.00
2023-03-22T03:45:34.809Z,0.00
2023-03-22T03:46:34.778Z,0.00
2023-03-22T03:47:34.786Z,0.00
2023-03-22T03:48:34.789Z,0.00
2023-03-22T03:49:34.727Z,0.00
2023-03-22T03:50:34.729Z,0.00
2023-03-22T03:51:34.740Z,0.00
2023-03-22T03:52:34.714Z,0.00
2023-03-22T03:53:34.714Z,0.00
2023-03-22T03:54:34.700Z,0.00
2023-03-22T03:55:34.658Z,0.00
2023-03-22T03:56:34.663Z,0.00
2023-03-22T03:57:34.654Z,0.00
2023-03-22T03:58:34.656Z,0.00
2023-03-22T03:59:34.655Z,0.00
2023-03-22T04:00:34.680Z,0.00
2023-03-22T04:01:34.610Z,0.00
2023-03-22T04:02:34.899Z,0.00
2023-03-22T04:03:34.585Z,0.00
2023-03-22T04:04:34.664Z,0.00
2023-03-22T04:05:34.542Z,0.00
2023-03-22T04:06:34.527Z,0.00
2023-03-22T04:07:34.519Z,0.00
2023-03-22T04:08:34.543Z,0.00
2023-03-22T04:09:34.542Z,0.00
2023-03-22T04:10:34.536Z,0.00
2023-03-22T04:11:34.472Z,0.00
2023-03-22T04:12:34.484Z,0.00
2023-03-22T04:13:34.481Z,0.00
2023-03-22T04:14:35.207Z,0.00
2023-03-22T04:15:34.466Z,0.00
2023-03-22T04:16:34.489Z,0.00
2023-03-22T04:17:34.465Z,0.00
2023-03-22T04:18:34.411Z,0.00
2023-03-22T04:19:34.395Z,0.00
2023-03-22T04:20:34.404Z,0.00
2023-03-22T04:21:34.403Z,0.00
2023-03-22T04:22:34.415Z,0.00
2023-03-22T04:23:34.343Z,0.00
2023-03-22T04:24:34.344Z,0.00
2023-03-22T04:25:34.346Z,0.00
2023-03-22T04:26:34.378Z,0.00
2023-03-22T04:27:34.342Z,0.00
2023-03-22T04:28:34.347Z,0.00
2023-03-22T04:29:34.279Z,0.00
2023-03-22T04:30:34.269Z,0.00
2023-03-22T04:31:34.275Z,0.00
2023-03-22T04:32:34.267Z,0.00
2023-03-22T04:33:34.277Z,0.00
2023-03-22T04:34:34.213Z,0.00
2023-03-22T04:35:34.220Z,0.00
2023-03-22T04:36:34.209Z,0.00
2023-03-22T04:37:34.320Z,0.00
2023-03-22T04:38:34.210Z,0.00
2023-03-22T04:39:34.220Z,0.00
2023-03-22T04:40:34.167Z,0.00
2023-03-22T04:41:34.336Z,0.00
2023-03-22T04:42:34.196Z,0.00
2023-03-22T04:43:34.147Z,0.00
2023-03-22T04:44:34.155Z,0.00
2023-03-22T04:45:34.120Z,0.00
2023-03-22T04:46:34.177Z,0.00
2023-03-22T04:47:34.076Z,0.00
2023-03-22T04:48:34.085Z,0.00
2023-03-22T04:49:34.089Z,0.00
2023-03-22T04:50:34.107Z,0.00
2023-03-22T04:51:34.143Z,0.00
2023-03-22T04:52:34.297Z,0.00
2023-03-22T04:53:34.032Z,0.00
2023-03-22T04:54:34.035Z,0.00
2023-03-22T04:55:34.170Z,0.00
2023-03-22T04:56:34.061Z,0.00
2023-03-22T04:57:34.163Z,4.00
2023-03-22T04:58:33.964Z,4.00
2023-03-22T04:59:34.260Z,4.00
2023-03-22T05:00:33.954Z,4.00
2023-03-22T05:01:34.069Z,4.00
2023-03-22T05:02:34.104Z,4.00
2023-03-22T05:03:33.893Z,4.00
2023-03-22T05:04:33.881Z,8.00
2023-03-22T05:05:33.895Z,4.00
2023-03-22T05:06:33.893Z,8.00
2023-03-22T05:07:33.896Z,12.00
2023-03-22T05:08:33.837Z,12.00
2023-03-22T05:09:33.832Z,16.00
2023-03-22T05:10:34.262Z,12.00
2023-03-22T05:11:33.935Z,16.00
2023-03-22T05:12:33.851Z,20.00
2023-03-22T05:13:33.849Z,24.00
2023-03-22T05:14:33.884Z,28.00
2023-03-22T05:15:34.288Z,28.00
2023-03-22T05:16:33.779Z,32.00
2023-03-22T05:17:33.765Z,36.00
2023-03-22T05:18:33.774Z,36.00
2023-03-22T05:19:33.772Z,40.00
2023-03-22T05:20:34.729Z,44.00
2023-03-22T05:21:33.786Z,48.00
2023-03-22T05:22:33.713Z,52.00
2023-03-22T05:23:33.735Z,56.00
2023-03-22T05:24:33.711Z,60.00
2023-03-22T05:25:33.644Z,64.00
2023-03-22T05:26:35.393Z,64.00
2023-03-22T05:27:35.271Z,72.00
2023-03-22T05:28:33.816Z,76.00
2023-03-22T05:29:33.650Z,80.00
2023-03-22T05:30:33.684Z,84.00
2023-03-22T05:31:33.701Z,88.00
2023-03-22T05:32:33.582Z,88.00
2023-03-22T05:33:33.573Z,96.00
2023-03-22T05:34:33.565Z,100.00
2023-03-22T05:35:33.630Z,100.00
2023-03-22T05:36:33.605Z,104.00
2023-03-22T05:37:33.527Z,112.00
2023-03-22T05:38:33.513Z,116.00
2023-03-22T05:39:33.608Z,120.00
2023-03-22T05:40:33.517Z,128.00
2023-03-22T05:41:35.893Z,132.00
2023-03-22T05:42:33.457Z,132.00
2023-03-22T05:43:33.604Z,132.00
2023-03-22T05:44:33.462Z,140.00
2023-03-22T05:45:33.471Z,148.00
2023-03-22T05:46:33.531Z,148.00
2023-03-22T05:47:33.460Z,152.00
2023-03-22T05:48:33.469Z,156.00
2023-03-22T05:49:33.383Z,152.00
2023-03-22T05:50:33.391Z,148.00
2023-03-22T05:51:33.409Z,148.00
2023-03-22T05:52:33.420Z,152.00
2023-03-22T05:53:33.341Z,156.00
2023-03-22T05:54:33.347Z,164.00
2023-03-22T05:55:33.317Z,168.00
2023-03-22T05:56:33.344Z,168.00
2023-03-22T05:57:33.347Z,164.00
2023-03-22T05:58:33.331Z,164.00
2023-03-22T05:59:33.276Z,172.00
2023-03-22T06:00:33.262Z,180.00
2023-03-22T06:01:33.288Z,188.00
2023-03-22T06:02:33.289Z,192.00
2023-03-22T06:03:33.410Z,200.00
2023-03-22T06:04:33.235Z,208.00
2023-03-22T06:05:33.277Z,220.00
2023-03-22T06:06:33.205Z,224.00
2023-03-22T06:07:33.232Z,224.00
2023-03-22T06:08:33.205Z,224.00
2023-03-22T06:09:33.212Z,224.00
2023-03-22T06:10:33.148Z,232.00
2023-03-22T06:11:33.140Z,236.00
2023-03-22T06:12:33.151Z,232.00
2023-03-22T06:13:33.153Z,232.00
2023-03-22T06:14:33.153Z,232.00
2023-03-22T06:15:33.170Z,224.00
2023-03-22T06:16:33.136Z,228.00
2023-03-22T06:17:33.090Z,232.00
2023-03-22T06:18:33.118Z,240.00
2023-03-22T06:19:33.086Z,248.00
2023-03-22T06:20:33.074Z,260.00
2023-03-22T06:21:33.073Z,260.00
2023-03-22T06:22:33.088Z,264.00
2023-03-22T06:23:33.018Z,276.00
2023-03-22T06:24:33.024Z,276.00
2023-03-22T06:25:32.999Z,276.00
2023-03-22T06:26:33.012Z,272.00
2023-03-22T06:27:33.024Z,288.00
2023-03-22T06:28:32.953Z,304.00
2023-03-22T06:29:32.957Z,312.00
2023-03-22T06:30:32.966Z,312.00
2023-03-22T06:31:32.952Z,320.00
2023-03-22T06:32:32.950Z,324.00
2023-03-22T06:33:32.957Z,328.00
2023-03-22T06:34:32.942Z,340.00
2023-03-22T06:35:33.027Z,340.00
2023-03-22T06:36:32.891Z,356.00
2023-03-22T06:37:32.893Z,360.00
2023-03-22T06:38:32.881Z,372.00
2023-03-22T06:39:32.878Z,384.00
2023-03-22T06:40:32.815Z,380.00
2023-03-22T06:41:32.845Z,380.00
2023-03-22T06:42:32.814Z,380.00
2023-03-22T06:43:32.848Z,360.00
2023-03-22T06:44:32.846Z,336.00
2023-03-22T06:45:32.763Z,332.00
2023-03-22T06:46:32.839Z,380.00
2023-03-22T06:47:32.772Z,384.00
2023-03-22T06:48:32.748Z,384.00
2023-03-22T06:49:32.924Z,388.00
2023-03-22T06:50:32.781Z,400.00
2023-03-22T06:51:32.687Z,400.00
2023-03-22T06:52:32.689Z,388.00
2023-03-22T06:53:32.693Z,360.00
2023-03-22T06:54:32.685Z,372.00
2023-03-22T06:55:32.691Z,372.00
2023-03-22T06:56:32.703Z,372.00
2023-03-22T06:57:32.645Z,368.00
2023-03-22T06:58:32.622Z,388.00
2023-03-22T06:59:32.624Z,388.00
2023-03-22T07:00:32.614Z,388.00
2023-03-22T07:01:32.640Z,392.00
2023-03-22T07:02:32.597Z,392.00
2023-03-22T07:03:32.558Z,388.00
2023-03-22T07:04:32.607Z,396.00
2023-03-22T07:05:32.543Z,392.00
2023-03-22T07:06:32.612Z,396.00
2023-03-22T07:07:32.510Z,404.00
2023-03-22T07:08:32.622Z,412.00
2023-03-22T07:09:32.482Z,424.00
2023-03-22T07:10:32.571Z,432.00
2023-03-22T07:11:32.498Z,444.00
2023-03-22T07:12:33.246Z,452.00
2023-03-22T07:13:32.438Z,456.00
2023-03-22T07:14:32.511Z,460.00
2023-03-22T07:15:32.503Z,460.00
2023-03-22T07:16:32.510Z,460.00
2023-03-22T07:17:32.446Z,460.00
2023-03-22T07:18:32.453Z,460.00
2023-03-22T07:19:32.443Z,472.00
2023-03-22T07:20:32.423Z,472.00
2023-03-22T07:21:32.365Z,476.00
2023-03-22T07:22:32.359Z,480.00
2023-03-22T07:23:32.350Z,484.00
2023-03-22T07:24:32.329Z,488.00
2023-03-22T07:25:32.311Z,484.00
2023-03-22T07:26:32.327Z,496.00
2023-03-22T07:27:32.504Z,500.00
2023-03-22T07:28:32.329Z,496.00
2023-03-22T07:29:32.322Z,492.00
2023-03-22T07:30:32.249Z,492.00
2023-03-22T07:31:32.295Z,488.00
2023-03-22T07:32:32.260Z,480.00
2023-03-22T07:33:32.280Z,468.00
2023-03-22T07:34:32.253Z,460.00
2023-03-22T07:35:32.411Z,444.00
2023-03-22T07:36:32.188Z,428.00
2023-03-22T07:37:32.174Z,416.00
2023-03-22T07:38:32.306Z,412.00
2023-03-22T07:39:32.189Z,408.00
2023-03-22T07:40:32.195Z,400.00
2023-03-22T07:41:32.167Z,400.00
2023-03-22T07:42:32.144Z,404.00
2023-03-22T07:43:34.056Z,404.00
2023-03-22T07:44:33.156Z,428.00
2023-03-22T07:45:32.163Z,436.00
2023-03-22T07:46:32.149Z,436.00
2023-03-22T07:47:40.811Z,436.00
2023-03-22T07:48:33.117Z,432.00
2023-03-22T07:49:32.087Z,428.00
2023-03-22T07:50:32.115Z,424.00
2023-03-22T07:51:32.035Z,420.00
2023-03-22T07:52:32.028Z,416.00
2023-03-22T07:53:32.815Z,412.00
2023-03-22T07:54:34.229Z,408.00
2023-03-22T07:55:32.013Z,400.00
2023-03-22T07:56:32.002Z,404.00
2023-03-22T07:57:31.974Z,400.00
2023-03-22T07:58:32.036Z,376.00
2023-03-22T07:59:31.930Z,376.00
2023-03-22T08:00:31.930Z,384.00
2023-03-22T08:01:31.941Z,384.00
2023-03-22T08:02:31.911Z,388.00
2023-03-22T08:03:31.956Z,388.00
2023-03-22T08:04:31.886Z,384.00
2023-03-22T08:05:31.880Z,392.00
2023-03-22T08:06:32.047Z,392.00
2023-03-22T08:07:31.883Z,396.00
2023-03-22T08:08:31.865Z,400.00
2023-03-22T08:09:31.852Z,364.00
2023-03-22T08:10:34.958Z,360.00
2023-03-22T08:11:31.826Z,364.00
2023-03-22T08:12:31.819Z,404.00
2023-03-22T08:13:31.815Z,400.00
2023-03-22T08:14:36.670Z,400.00
2023-03-22T08:15:33.145Z,396.00
2023-03-22T08:16:31.783Z,396.00
2023-03-22T08:17:31.749Z,396.00
2023-03-22T08:18:31.746Z,396.00
2023-03-22T08:19:31.754Z,396.00
2023-03-22T08:20:31.726Z,396.00
2023-03-22T08:21:31.806Z,400.00
2023-03-22T08:22:31.850Z,400.00
2023-03-22T08:23:41.316Z,404.00
2023-03-22T08:24:32.662Z,404.00
2023-03-22T08:25:31.701Z,408.00
2023-03-22T08:26:31.654Z,408.00
2023-03-22T08:27:31.765Z,420.00
2023-03-22T08:28:31.632Z,420.00
2023-03-22T08:29:31.631Z,420.00
2023-03-22T08:30:31.660Z,420.00
2023-03-22T08:31:31.723Z,420.00
2023-03-22T08:32:31.595Z,424.00
2023-03-22T08:33:31.553Z,420.00
2023-03-22T08:34:31.595Z,424.00
2023-03-22T08:35:31.577Z,424.00
2023-03-22T08:36:31.567Z,428.00
2023-03-22T08:37:31.569Z,428.00
2023-03-22T08:38:31.535Z,428.00
2023-03-22T08:39:31.485Z,424.00
2023-03-22T08:40:31.518Z,424.00
2023-03-22T08:41:31.496Z,424.00
2023-03-22T08:42:31.462Z,428.00
2023-03-22T08:43:31.475Z,428.00
2023-03-22T08:44:31.471Z,432.00
2023-03-22T08:45:31.472Z,432.00
2023-03-22T08:46:31.494Z,432.00
2023-03-22T08:47:31.399Z,428.00
2023-03-22T08:48:31.400Z,424.00
2023-03-22T08:49:31.371Z,424.00
2023-03-22T08:50:31.404Z,424.00
2023-03-22T08:51:31.372Z,424.00
2023-03-22T08:52:31.733Z,432.00
2023-03-22T08:53:31.373Z,432.00
2023-03-22T08:54:31.338Z,436.00
2023-03-22T08:55:31.331Z,440.00
2023-03-22T08:56:31.302Z,440.00
2023-03-22T08:57:31.312Z,436.00
2023-03-22T08:58:31.304Z,436.00
2023-03-22T08:59:31.288Z,432.00
2023-03-22T09:00:45.752Z,436.00
2023-03-22T09:01:32.350Z,432.00
2023-03-22T09:02:31.277Z,432.00
2023-03-22T09:03:31.258Z,432.00
2023-03-22T09:04:31.301Z,432.00
2023-03-22T09:05:31.206Z,432.00
2023-03-22T09:06:31.274Z,428.00
2023-03-22T09:07:31.174Z,420.00
2023-03-22T09:08:31.182Z,412.00
2023-03-22T09:09:31.185Z,416.00
2023-03-22T09:10:31.142Z,416.00
2023-03-22T09:11:31.146Z,416.00
2023-03-22T09:12:31.309Z,420.00
2023-03-22T09:13:31.119Z,420.00
2023-03-22T09:14:31.120Z,416.00
2023-03-22T09:15:31.105Z,420.00
2023-03-22T09:16:31.176Z,424.00
2023-03-22T09:17:31.089Z,420.00
2023-03-22T09:18:31.092Z,420.00
2023-03-22T09:19:31.049Z,420.00
2023-03-22T09:20:31.184Z,416.00
2023-03-22T09:21:31.133Z,416.00
2023-03-22T09:22:31.119Z,412.00
2023-03-22T09:23:31.018Z,416.00
2023-03-22T09:24:31.021Z,416.00
2023-03-22T09:25:30.996Z,416.00
2023-03-22T09:26:31.026Z,420.00
2023-03-22T09:27:31.004Z,420.00
2023-03-22T09:28:31.021Z,424.00
2023-03-22T09:29:30.928Z,420.00
2023-03-22T09:30:30.973Z,420.00
2023-03-22T09:31:30.986Z,420.00
2023-03-22T09:32:30.933Z,416.00
2023-03-22T09:33:30.926Z,416.00
2023-03-22T09:34:30.901Z,416.00
2023-03-22T09:35:30.949Z,412.00
2023-03-22T09:36:30.851Z,412.00
2023-03-22T09:37:30.860Z,412.00
2023-03-22T09:38:30.863Z,412.00
2023-03-22T09:39:30.876Z,412.00
2023-03-22T09:40:30.832Z,416.00
2023-03-22T09:41:30.826Z,412.00
2023-03-22T09:42:30.788Z,412.00
2023-03-22T09:43:33.066Z,416.00
2023-03-22T09:44:30.757Z,416.00
2023-03-22T09:45:30.781Z,416.00
2023-03-22T09:46:30.819Z,408.00
2023-03-22T09:47:42.291Z,412.00
2023-03-22T09:48:31.823Z,408.00
2023-03-22T09:49:32.147Z,412.00
2023-03-22T09:50:31.310Z,416.00
2023-03-22T09:51:30.717Z,412.00
2023-03-22T09:52:30.754Z,412.00
2023-03-22T09:53:30.681Z,416.00
2023-03-22T09:54:30.662Z,420.00
2023-03-22T09:55:30.689Z,424.00
2023-03-22T09:56:30.637Z,428.00
2023-03-22T09:57:30.634Z,428.00
2023-03-22T09:58:30.713Z,428.00
2023-03-22T09:59:30.622Z,432.00
2023-03-22T10:00:30.856Z,436.00
2023-03-22T10:01:30.937Z,436.00
2023-03-22T10:02:30.653Z,396.00
2023-03-22T10:03:30.598Z,400.00
2023-03-22T10:04:30.757Z,400.00
2023-03-22T10:05:30.550Z,404.00
2023-03-22T10:06:30.565Z,404.00
2023-03-22T10:07:30.522Z,404.00
2023-03-22T10:08:30.512Z,440.00
2023-03-22T10:09:30.521Z,440.00
2023-03-22T10:10:30.491Z,444.00
2023-03-22T10:11:30.488Z,444.00
2023-03-22T10:12:30.462Z,448.00
2023-03-22T10:13:30.452Z,448.00
2023-03-22T10:14:30.907Z,452.00
2023-03-22T10:15:30.460Z,456.00
2023-03-22T10:16:30.471Z,460.00
2023-03-22T10:17:30.423Z,464.00
2023-03-22T10:18:30.376Z,464.00
2023-03-22T10:19:30.478Z,468.00
2023-03-22T10:20:30.386Z,472.00
2023-03-22T10:21:30.389Z,472.00
2023-03-22T10:22:30.365Z,472.00
2023-03-22T10:23:30.403Z,476.00
2023-03-22T10:24:30.383Z,480.00
2023-03-22T10:25:30.314Z,488.00
2023-03-22T10:26:30.293Z,492.00
2023-03-22T10:27:30.299Z,492.00
2023-03-22T10:28:30.306Z,496.00
2023-03-22T10:29:30.403Z,492.00
2023-03-22T10:30:30.262Z,492.00
2023-03-22T10:31:30.333Z,492.00
2023-03-22T10:32:30.279Z,492.00
2023-03-22T10:33:38.360Z,492.00
2023-03-22T10:34:30.196Z,496.00
2023-03-22T10:35:30.207Z,492.00
2023-03-22T10:36:30.186Z,496.00
2023-03-22T10:37:30.170Z,500.00
2023-03-22T10:38:30.160Z,500.00
2023-03-22T10:39:30.162Z,504.00
2023-03-22T10:40:30.122Z,504.00
2023-03-22T10:41:30.121Z,508.00
2023-03-22T10:42:30.098Z,508.00
2023-03-22T10:43:30.107Z,512.00
2023-03-22T10:44:30.112Z,512.00
2023-03-22T10:45:30.069Z,512.00
2023-03-22T10:46:30.087Z,516.00
2023-03-22T10:47:30.063Z,524.00
2023-03-22T10:48:30.227Z,524.00
2023-03-22T10:49:30.049Z,524.00
2023-03-22T10:50:30.016Z,532.00
2023-03-22T10:51:30.017Z,532.00
2023-03-22T10:52:30.002Z,532.00
2023-03-22T10:53:30.028Z,536.00
2023-03-22T10:54:29.993Z,536.00
2023-03-22T10:55:29.978Z,536.00
2023-03-22T10:56:29.957Z,536.00
2023-03-22T10:57:29.947Z,536.00
2023-03-22T10:58:29.952Z,532.00
2023-03-22T10:59:29.939Z,528.00
2023-03-22T11:00:29.967Z,528.00
2023-03-22T11:01:30.072Z,524.00
2023-03-22T11:02:30.126Z,520.00
2023-03-22T11:03:29.893Z,520.00
2023-03-22T11:04:29.869Z,516.00
2023-03-22T11:05:29.877Z,512.00
2023-03-22T11:06:29.867Z,508.00
2023-03-22T11:07:29.843Z,496.00
2023-03-22T11:08:29.812Z,492.00
2023-03-22T11:09:29.804Z,492.00
2023-03-22T11:10:29.909Z,484.00
2023-03-22T11:11:29.814Z,488.00
2023-03-22T11:12:29.790Z,480.00
2023-03-22T11:13:29.776Z,480.00
2023-03-22T11:14:29.761Z,480.00
2023-03-22T11:15:29.754Z,480.00
2023-03-22T11:16:29.790Z,476.00
2023-03-22T11:17:29.726Z,484.00
2023-03-22T11:18:29.741Z,488.00
2023-03-22T11:19:29.711Z,488.00
2023-03-22T11:20:31.101Z,492.00
2023-03-22T11:21:29.681Z,488.00
2023-03-22T11:22:29.717Z,484.00
2023-03-22T11:23:29.694Z,484.00
2023-03-22T11:24:29.913Z,488.00
2023-03-22T11:25:29.618Z,488.00
2023-03-22T11:26:29.619Z,480.00
2023-03-22T11:27:29.629Z,480.00
2023-03-22T11:28:29.615Z,484.00
2023-03-22T11:29:29.575Z,480.00
2023-03-22T11:30:29.572Z,484.00
2023-03-22T11:31:29.613Z,484.00
2023-03-22T11:32:29.648Z,436.00
2023-03-22T11:33:29.738Z,436.00
2023-03-22T11:34:29.542Z,428.00
2023-03-22T11:35:29.571Z,432.00
2023-03-22T11:36:29.499Z,428.00
2023-03-22T11:37:29.484Z,424.00
2023-03-22T11:38:29.539Z,424.00
2023-03-22T11:39:29.541Z,424.00
2023-03-22T11:40:29.474Z,420.00
2023-03-22T11:41:29.482Z,420.00
2023-03-22T11:42:29.435Z,416.00
2023-03-22T11:43:29.455Z,412.00
2023-03-22T11:44:29.409Z,416.00
2023-03-22T11:45:29.404Z,420.00
2023-03-22T11:46:29.525Z,424.00
2023-03-22T11:47:29.449Z,424.00
2023-03-22T11:48:29.453Z,424.00
2023-03-22T11:49:29.365Z,420.00
2023-03-22T11:50:29.365Z,420.00
2023-03-22T11:51:29.360Z,424.00
2023-03-22T11:52:29.378Z,424.00
2023-03-22T11:53:29.344Z,428.00
2023-03-22T11:54:29.381Z,428.00
2023-03-22T11:55:29.330Z,428.00
2023-03-22T11:56:29.845Z,424.00
2023-03-22T11:57:29.261Z,420.00
2023-03-22T11:58:29.252Z,448.00
2023-03-22T11:59:29.254Z,464.00
2023-03-22T12:00:29.244Z,464.00
2023-03-22T12:01:29.240Z,460.00
2023-03-22T12:02:29.502Z,460.00
2023-03-22T12:03:29.348Z,460.00
2023-03-22T12:04:29.211Z,464.00
2023-03-22T12:05:29.170Z,460.00
2023-03-22T12:06:29.205Z,456.00
2023-03-22T12:07:29.162Z,452.00
2023-03-22T12:08:29.166Z,448.00
2023-03-22T12:09:29.136Z,444.00
2023-03-22T12:10:29.115Z,436.00
2023-03-22T12:11:29.125Z,440.00
2023-03-22T12:12:29.090Z,444.00
2023-03-22T12:13:29.096Z,444.00
2023-03-22T12:14:29.097Z,452.00
2023-03-22T12:15:29.064Z,456.00
2023-03-22T12:16:29.189Z,452.00
2023-03-22T12:17:29.074Z,448.00
2023-03-22T12:18:29.036Z,448.00
2023-03-22T12:19:29.029Z,448.00
2023-03-22T12:20:29.037Z,452.00
2023-03-22T12:21:28.993Z,456.00
2023-03-22T12:22:28.980Z,456.00
2023-03-22T12:23:28.971Z,456.00
2023-03-22T12:24:28.984Z,456.00
2023-03-22T12:25:28.965Z,452.00
2023-03-22T12:26:28.937Z,452.00
2023-03-22T12:27:28.954Z,456.00
2023-03-22T12:28:28.966Z,460.00
2023-03-22T12:29:28.911Z,464.00
2023-03-22T12:30:28.900Z,464.00
2023-03-22T12:31:28.910Z,464.00
2023-03-22T12:32:28.910Z,464.00
2023-03-22T12:33:28.860Z,468.00
2023-03-22T12:34:28.872Z,472.00
2023-03-22T12:35:28.844Z,472.00
2023-03-22T12:36:28.900Z,468.00
2023-03-22T12:37:30.119Z,476.00
2023-03-22T12:38:28.816Z,472.00
2023-03-22T12:39:28.800Z,468.00
2023-03-22T12:40:28.784Z,468.00
2023-03-22T12:41:28.788Z,476.00
2023-03-22T12:42:29.263Z,480.00
2023-03-22T12:43:28.786Z,496.00
2023-03-22T12:44:28.737Z,500.00
2023-03-22T12:45:28.738Z,512.00
2023-03-22T12:46:28.753Z,528.00
2023-03-22T12:47:28.775Z,532.00
2023-03-22T12:48:28.856Z,524.00